Home > Products > Valid Products > TAF

000
FTUS43 KGRB 011743 AAA
TAFGRB
TAF AMD
KGRB 011743Z 0118/0218 36007KT P6SM SCT024 BKN250
     FM012200 07005KT P6SM FEW030
     FM020100 VRB03KT P6SM SKC
     FM020800 00000KT 3SM BR SKC
      TEMPO 0208/0211 1/2SM FG
     FM021100 05006KT P6SM SKC=



000
FTUS43 KGRB 011743 AAA
TAFGRB
TAF AMD
KGRB 011743Z 0118/0218 36007KT P6SM SCT024 BKN250
     FM012200 07005KT P6SM FEW030
     FM020100 VRB03KT P6SM SKC
     FM020800 00000KT 3SM BR SKC
      TEMPO 0208/0211 1/2SM FG
     FM021100 05006KT P6SM SKC=



000
FTUS43 KGRB 011730
TAFGRB
TAF
KGRB 011730Z 0118/0218 36007KT P6SM BKN023
     FM011900 36005KT P6SM SCT023 BKN250
     FM012200 07005KT P6SM FEW030
     FM020100 VRB03KT P6SM SKC
     FM020800 00000KT 3SM BR SKC
      TEMPO 0208/0211 1/2SM FG
     FM021100 05006KT P6SM SKC=



000
FTUS43 KGRB 011730
TAFGRB
TAF
KGRB 011730Z 0118/0218 36007KT P6SM BKN023
     FM011900 36005KT P6SM SCT023 BKN250
     FM012200 07005KT P6SM FEW030
     FM020100 VRB03KT P6SM SKC
     FM020800 00000KT 3SM BR SKC
      TEMPO 0208/0211 1/2SM FG
     FM021100 05006KT P6SM SKC=



000
FTUS43 KGRB 011127
TAFGRB
TAF
KGRB 011127Z 0112/0212 36007KT P6SM SCT025
      TEMPO 0112/0116 BKN030
     FM012200 09007KT P6SM FEW040
     FM020100 VRB03KT P6SM SKC=



000
FTUS43 KGRB 011127
TAFGRB
TAF
KGRB 011127Z 0112/0212 36007KT P6SM SCT025
      TEMPO 0112/0116 BKN030
     FM012200 09007KT P6SM FEW040
     FM020100 VRB03KT P6SM SKC=



000
FTUS43 KGRB 011127
TAFGRB
TAF
KGRB 011127Z 0112/0212 36007KT P6SM SCT025
      TEMPO 0112/0116 BKN030
     FM012200 09007KT P6SM FEW040
     FM020100 VRB03KT P6SM SKC=



000
FTUS43 KGRB 011127
TAFGRB
TAF
KGRB 011127Z 0112/0212 36007KT P6SM SCT025
      TEMPO 0112/0116 BKN030
     FM012200 09007KT P6SM FEW040
     FM020100 VRB03KT P6SM SKC=



000
FTUS43 KGRB 010520
TAFGRB
TAF
KGRB 010520Z 0106/0206 36007KT P6SM SCT030
      TEMPO 0106/0110 BKN030
     FM012200 09007KT P6SM SKC=



000
FTUS43 KGRB 010520
TAFGRB
TAF
KGRB 010520Z 0106/0206 36007KT P6SM SCT030
      TEMPO 0106/0110 BKN030
     FM012200 09007KT P6SM SKC=



000
FTUS43 KGRB 010520
TAFGRB
TAF
KGRB 010520Z 0106/0206 36007KT P6SM SCT030
      TEMPO 0106/0110 BKN030
     FM012200 09007KT P6SM SKC=



000
FTUS43 KGRB 010156 AAA
TAFGRB
TAF AMD
KGRB 010156Z 0102/0124 02009KT P6SM BKN030
     FM010300 36007KT P6SM SCT035
     FM012200 07007KT P6SM SKC=



000
FTUS43 KGRB 010156 AAA
TAFGRB
TAF AMD
KGRB 010156Z 0102/0124 02009KT P6SM BKN030
     FM010300 36007KT P6SM SCT035
     FM012200 07007KT P6SM SKC=



000
FTUS43 KGRB 302339
TAFGRB
TAF
KGRB 302339Z 0100/0124 01009KT P6SM BKN035
      TEMPO 0100/0102 BKN025
     FM010200 36007KT P6SM SCT035
     FM012200 07007KT P6SM SKC=



000
FTUS43 KGRB 301857 AAB
TAFGRB
TAF AMD
KGRB 301857Z 3019/0118 02009KT P6SM BKN030
     FM302000 35009KT P6SM BKN035
     FM010100 36006KT P6SM SCT050
     FM011400 03009G14KT P6SM SCT040=



000
FTUS43 KGRB 301857 AAB
TAFGRB
TAF AMD
KGRB 301857Z 3019/0118 02009KT P6SM BKN030
     FM302000 35009KT P6SM BKN035
     FM010100 36006KT P6SM SCT050
     FM011400 03009G14KT P6SM SCT040=



000
FTUS43 KGRB 301826 AAA
TAFGRB
TAF AMD
KGRB 301826Z 3018/0118 35015KT P6SM BKN025
     FM302200 35009KT P6SM BKN035
     FM010100 36006KT P6SM SCT050
     FM011400 03009G14KT P6SM SCT040=



000
FTUS43 KGRB 301826 AAA
TAFGRB
TAF AMD
KGRB 301826Z 3018/0118 35015KT P6SM BKN025
     FM302200 35009KT P6SM BKN035
     FM010100 36006KT P6SM SCT050
     FM011400 03009G14KT P6SM SCT040=



000
FTUS43 KGRB 301826 AAA
TAFGRB
TAF AMD
KGRB 301826Z 3018/0118 35015KT P6SM BKN025
     FM302200 35009KT P6SM BKN035
     FM010100 36006KT P6SM SCT050
     FM011400 03009G14KT P6SM SCT040=



000
FTUS43 KGRB 301826 AAA
TAFGRB
TAF AMD
KGRB 301826Z 3018/0118 35015KT P6SM BKN025
     FM302200 35009KT P6SM BKN035
     FM010100 36006KT P6SM SCT050
     FM011400 03009G14KT P6SM SCT040=



000
FTUS43 KGRB 301720
TAFGRB
TAF
KGRB 301720Z 3018/0118 01011G15KT P6SM BKN035
     FM010100 03006KT P6SM SCT050
     FM011400 03009G14KT P6SM SCT040=



000
FTUS43 KGRB 301720
TAFGRB
TAF
KGRB 301720Z 3018/0118 01011G15KT P6SM BKN035
     FM010100 03006KT P6SM SCT050
     FM011400 03009G14KT P6SM SCT040=



000
FTUS43 KGRB 301720
TAFGRB
TAF
KGRB 301720Z 3018/0118 01011G15KT P6SM BKN035
     FM010100 03006KT P6SM SCT050
     FM011400 03009G14KT P6SM SCT040=



000
FTUS43 KGRB 301127
TAFGRB
TAF
KGRB 301127Z 3012/0112 34011KT P6SM SCT008 SCT022
      TEMPO 3012/3014 4SM -RA BR BKN008 BKN022
     FM301500 36009KT P6SM BKN020 BKN035
     FM301800 02011KT P6SM BKN035
     FM010000 36006KT P6SM SCT040=



000
FTUS43 KGRB 301127
TAFGRB
TAF
KGRB 301127Z 3012/0112 34011KT P6SM SCT008 SCT022
      TEMPO 3012/3014 4SM -RA BR BKN008 BKN022
     FM301500 36009KT P6SM BKN020 BKN035
     FM301800 02011KT P6SM BKN035
     FM010000 36006KT P6SM SCT040=



000
FTUS43 KGRB 301127
TAFGRB
TAF
KGRB 301127Z 3012/0112 34011KT P6SM SCT008 SCT022
      TEMPO 3012/3014 4SM -RA BR BKN008 BKN022
     FM301500 36009KT P6SM BKN020 BKN035
     FM301800 02011KT P6SM BKN035
     FM010000 36006KT P6SM SCT040=



000
FTUS43 KGRB 301127
TAFGRB
TAF
KGRB 301127Z 3012/0112 34011KT P6SM SCT008 SCT022
      TEMPO 3012/3014 4SM -RA BR BKN008 BKN022
     FM301500 36009KT P6SM BKN020 BKN035
     FM301800 02011KT P6SM BKN035
     FM010000 36006KT P6SM SCT040=



000
FTUS43 KGRB 301011 AAA
TAFGRB
TAF AMD
KGRB 301011Z 3010/0106 33006KT P6SM SCT008 SCT022 BKN150
      TEMPO 3010/3014 3SM BR BKN008 BKN022
     FM301500 36009KT P6SM BKN020 BKN035
     FM301800 02011KT P6SM BKN035
     FM010000 36006KT P6SM SCT025=



000
FTUS43 KGRB 301011 AAA
TAFGRB
TAF AMD
KGRB 301011Z 3010/0106 33006KT P6SM SCT008 SCT022 BKN150
      TEMPO 3010/3014 3SM BR BKN008 BKN022
     FM301500 36009KT P6SM BKN020 BKN035
     FM301800 02011KT P6SM BKN035
     FM010000 36006KT P6SM SCT025=



000
FTUS43 KGRB 301011 AAA
TAFGRB
TAF AMD
KGRB 301011Z 3010/0106 33006KT P6SM SCT008 SCT022 BKN150
      TEMPO 3010/3014 3SM BR BKN008 BKN022
     FM301500 36009KT P6SM BKN020 BKN035
     FM301800 02011KT P6SM BKN035
     FM010000 36006KT P6SM SCT025=



000
FTUS43 KGRB 301011 AAA
TAFGRB
TAF AMD
KGRB 301011Z 3010/0106 33006KT P6SM SCT008 SCT022 BKN150
      TEMPO 3010/3014 3SM BR BKN008 BKN022
     FM301500 36009KT P6SM BKN020 BKN035
     FM301800 02011KT P6SM BKN035
     FM010000 36006KT P6SM SCT025=



000
FTUS43 KGRB 300520
TAFGRB
TAF
KGRB 300520Z 3006/0106 VRB03KT P6SM VCSH SCT015 BKN100
      TEMPO 3006/3010 1 1/2SM BR
     FM301000 33006KT 6SM BR BKN015 BKN035
      TEMPO 3010/3014 3SM BR BKN008
     FM301500 36009KT P6SM BKN020 BKN035
     FM301800 02011KT P6SM BKN035
     FM010000 36006KT P6SM SCT025=



000
FTUS43 KGRB 300520
TAFGRB
TAF
KGRB 300520Z 3006/0106 VRB03KT P6SM VCSH SCT015 BKN100
      TEMPO 3006/3010 1 1/2SM BR
     FM301000 33006KT 6SM BR BKN015 BKN035
      TEMPO 3010/3014 3SM BR BKN008
     FM301500 36009KT P6SM BKN020 BKN035
     FM301800 02011KT P6SM BKN035
     FM010000 36006KT P6SM SCT025=



000
FTUS43 KGRB 300253 AAB
TAFGRB
TAF AMD
KGRB 300253Z 3003/3024 VRB03KT P6SM VCTS BKN025CB BKN080
     FM300400 VRB03KT P6SM VCSH SCT015 BKN100
     FM301000 VRB03KT 6SM BR BKN015 BKN035
      TEMPO 3010/3014 3SM BR BKN008
     FM301500 01008KT P6SM BKN020 BKN035
     FM301800 03011KT P6SM BKN035=



000
FTUS43 KGRB 300253 AAB
TAFGRB
TAF AMD
KGRB 300253Z 3003/3024 VRB03KT P6SM VCTS BKN025CB BKN080
     FM300400 VRB03KT P6SM VCSH SCT015 BKN100
     FM301000 VRB03KT 6SM BR BKN015 BKN035
      TEMPO 3010/3014 3SM BR BKN008
     FM301500 01008KT P6SM BKN020 BKN035
     FM301800 03011KT P6SM BKN035=



000
FTUS43 KGRB 300253 AAB
TAFGRB
TAF AMD
KGRB 300253Z 3003/3024 VRB03KT P6SM VCTS BKN025CB BKN080
     FM300400 VRB03KT P6SM VCSH SCT015 BKN100
     FM301000 VRB03KT 6SM BR BKN015 BKN035
      TEMPO 3010/3014 3SM BR BKN008
     FM301500 01008KT P6SM BKN020 BKN035
     FM301800 03011KT P6SM BKN035=



000
FTUS43 KGRB 300253 AAB
TAFGRB
TAF AMD
KGRB 300253Z 3003/3024 VRB03KT P6SM VCTS BKN025CB BKN080
     FM300400 VRB03KT P6SM VCSH SCT015 BKN100
     FM301000 VRB03KT 6SM BR BKN015 BKN035
      TEMPO 3010/3014 3SM BR BKN008
     FM301500 01008KT P6SM BKN020 BKN035
     FM301800 03011KT P6SM BKN035=



000
FTUS43 KGRB 300219 AAA
TAFGRB
TAF AMD
KGRB 300219Z 3002/3024 VRB03KT P6SM VCSH SCT025 BKN080
      TEMPO 3002/3004 BKN025
     FM300400 VRB03KT P6SM VCSH SCT015 BKN100
     FM301000 VRB03KT 6SM BR BKN015 BKN035
      TEMPO 3010/3014 3SM BR BKN008
     FM301500 01008KT P6SM BKN020 BKN035
     FM301800 03011KT P6SM BKN035=



000
FTUS43 KGRB 300219 AAA
TAFGRB
TAF AMD
KGRB 300219Z 3002/3024 VRB03KT P6SM VCSH SCT025 BKN080
      TEMPO 3002/3004 BKN025
     FM300400 VRB03KT P6SM VCSH SCT015 BKN100
     FM301000 VRB03KT 6SM BR BKN015 BKN035
      TEMPO 3010/3014 3SM BR BKN008
     FM301500 01008KT P6SM BKN020 BKN035
     FM301800 03011KT P6SM BKN035=



000
FTUS43 KGRB 300219 AAA
TAFGRB
TAF AMD
KGRB 300219Z 3002/3024 VRB03KT P6SM VCSH SCT025 BKN080
      TEMPO 3002/3004 BKN025
     FM300400 VRB03KT P6SM VCSH SCT015 BKN100
     FM301000 VRB03KT 6SM BR BKN015 BKN035
      TEMPO 3010/3014 3SM BR BKN008
     FM301500 01008KT P6SM BKN020 BKN035
     FM301800 03011KT P6SM BKN035=



000
FTUS43 KGRB 300219 AAA
TAFGRB
TAF AMD
KGRB 300219Z 3002/3024 VRB03KT P6SM VCSH SCT025 BKN080
      TEMPO 3002/3004 BKN025
     FM300400 VRB03KT P6SM VCSH SCT015 BKN100
     FM301000 VRB03KT 6SM BR BKN015 BKN035
      TEMPO 3010/3014 3SM BR BKN008
     FM301500 01008KT P6SM BKN020 BKN035
     FM301800 03011KT P6SM BKN035=



000
FTUS43 KGRB 292338
TAFGRB
TAF
KGRB 292338Z 3000/3024 VRB03KT P6SM VCSH SCT035 BKN080
      TEMPO 3001/3003 3SM TSRA BR BKN035CB
     FM300400 VRB03KT P6SM VCSH SCT015 BKN100
     FM301000 VRB03KT 6SM BR BKN015 BKN035
      TEMPO 3010/3014 3SM BR BKN008
     FM301500 01008KT P6SM BKN020 BKN035
     FM301800 03011KT P6SM BKN035=



000
FTUS43 KGRB 292338
TAFGRB
TAF
KGRB 292338Z 3000/3024 VRB03KT P6SM VCSH SCT035 BKN080
      TEMPO 3001/3003 3SM TSRA BR BKN035CB
     FM300400 VRB03KT P6SM VCSH SCT015 BKN100
     FM301000 VRB03KT 6SM BR BKN015 BKN035
      TEMPO 3010/3014 3SM BR BKN008
     FM301500 01008KT P6SM BKN020 BKN035
     FM301800 03011KT P6SM BKN035=



000
FTUS43 KGRB 292338
TAFGRB
TAF
KGRB 292338Z 3000/3024 VRB03KT P6SM VCSH SCT035 BKN080
      TEMPO 3001/3003 3SM TSRA BR BKN035CB
     FM300400 VRB03KT P6SM VCSH SCT015 BKN100
     FM301000 VRB03KT 6SM BR BKN015 BKN035
      TEMPO 3010/3014 3SM BR BKN008
     FM301500 01008KT P6SM BKN020 BKN035
     FM301800 03011KT P6SM BKN035=



000
FTUS43 KGRB 292338
TAFGRB
TAF
KGRB 292338Z 3000/3024 VRB03KT P6SM VCSH SCT035 BKN080
      TEMPO 3001/3003 3SM TSRA BR BKN035CB
     FM300400 VRB03KT P6SM VCSH SCT015 BKN100
     FM301000 VRB03KT 6SM BR BKN015 BKN035
      TEMPO 3010/3014 3SM BR BKN008
     FM301500 01008KT P6SM BKN020 BKN035
     FM301800 03011KT P6SM BKN035=



000
FTUS43 KGRB 292146 AAE
TAFGRB
TAF AMD
KGRB 292146Z 2922/3018 21006KT P6SM VCSH SCT035 BKN080
      TEMPO 2922/2923 2SM +TSRA BKN035CB
     FM300000 VRB03KT P6SM VCSH SCT035 BKN080
      TEMPO 3003/3006 -SHRA BKN035
     FM300600 VRB03KT P6SM VCSH SCT012 BKN035
     FM301000 VRB03KT 5SM BR VCSH SCT010 BKN035
      TEMPO 3010/3013 3SM BR BKN010
     FM301400 01005KT P6SM SCT012 BKN035=



000
FTUS43 KGRB 292146 AAE
TAFGRB
TAF AMD
KGRB 292146Z 2922/3018 21006KT P6SM VCSH SCT035 BKN080
      TEMPO 2922/2923 2SM +TSRA BKN035CB
     FM300000 VRB03KT P6SM VCSH SCT035 BKN080
      TEMPO 3003/3006 -SHRA BKN035
     FM300600 VRB03KT P6SM VCSH SCT012 BKN035
     FM301000 VRB03KT 5SM BR VCSH SCT010 BKN035
      TEMPO 3010/3013 3SM BR BKN010
     FM301400 01005KT P6SM SCT012 BKN035=



000
FTUS43 KGRB 292141 AAD
TAFGRB
TAF AMD
KGRB 292141Z 2922/3018 21006KT P6SM VCSH SCT035 BKN080
      TEMPO 2922/2923 2SM +SHRA BKN035
     FM300000 VRB03KT P6SM VCSH SCT035 BKN080
      TEMPO 3003/3006 -SHRA BKN035
     FM300600 VRB03KT P6SM VCSH SCT012 BKN035
     FM301000 VRB03KT 5SM BR VCSH SCT010 BKN035
      TEMPO 3010/3013 3SM BR BKN010
     FM301400 01005KT P6SM SCT012 BKN035=



000
FTUS43 KGRB 292141 AAD
TAFGRB
TAF AMD
KGRB 292141Z 2922/3018 21006KT P6SM VCSH SCT035 BKN080
      TEMPO 2922/2923 2SM +SHRA BKN035
     FM300000 VRB03KT P6SM VCSH SCT035 BKN080
      TEMPO 3003/3006 -SHRA BKN035
     FM300600 VRB03KT P6SM VCSH SCT012 BKN035
     FM301000 VRB03KT 5SM BR VCSH SCT010 BKN035
      TEMPO 3010/3013 3SM BR BKN010
     FM301400 01005KT P6SM SCT012 BKN035=



000
FTUS43 KGRB 292141 AAD
TAFGRB
TAF AMD
KGRB 292141Z 2922/3018 21006KT P6SM VCSH SCT035 BKN080
      TEMPO 2922/2923 2SM +SHRA BKN035
     FM300000 VRB03KT P6SM VCSH SCT035 BKN080
      TEMPO 3003/3006 -SHRA BKN035
     FM300600 VRB03KT P6SM VCSH SCT012 BKN035
     FM301000 VRB03KT 5SM BR VCSH SCT010 BKN035
      TEMPO 3010/3013 3SM BR BKN010
     FM301400 01005KT P6SM SCT012 BKN035=



000
FTUS43 KGRB 292141 AAD
TAFGRB
TAF AMD
KGRB 292141Z 2922/3018 21006KT P6SM VCSH SCT035 BKN080
      TEMPO 2922/2923 2SM +SHRA BKN035
     FM300000 VRB03KT P6SM VCSH SCT035 BKN080
      TEMPO 3003/3006 -SHRA BKN035
     FM300600 VRB03KT P6SM VCSH SCT012 BKN035
     FM301000 VRB03KT 5SM BR VCSH SCT010 BKN035
      TEMPO 3010/3013 3SM BR BKN010
     FM301400 01005KT P6SM SCT012 BKN035=



000
FTUS43 KGRB 291748 AAA
TAFGRB
TAF AMD
KGRB 291748Z 2918/3018 21006KT P6SM VCSH SCT035 BKN080
      TEMPO 3003/3006 -SHRA BKN035
     FM300600 VRB03KT P6SM VCSH SCT012 BKN035
     FM301000 VRB03KT 5SM BR VCSH SCT010 BKN035
      TEMPO 3010/3013 3SM BR BKN010
     FM301400 01005KT P6SM SCT012 BKN035=



000
FTUS43 KGRB 291748 AAA
TAFGRB
TAF AMD
KGRB 291748Z 2918/3018 21006KT P6SM VCSH SCT035 BKN080
      TEMPO 3003/3006 -SHRA BKN035
     FM300600 VRB03KT P6SM VCSH SCT012 BKN035
     FM301000 VRB03KT 5SM BR VCSH SCT010 BKN035
      TEMPO 3010/3013 3SM BR BKN010
     FM301400 01005KT P6SM SCT012 BKN035=



000
FTUS43 KGRB 291748 AAA
TAFGRB
TAF AMD
KGRB 291748Z 2918/3018 21006KT P6SM VCSH SCT035 BKN080
      TEMPO 3003/3006 -SHRA BKN035
     FM300600 VRB03KT P6SM VCSH SCT012 BKN035
     FM301000 VRB03KT 5SM BR VCSH SCT010 BKN035
      TEMPO 3010/3013 3SM BR BKN010
     FM301400 01005KT P6SM SCT012 BKN035=



000
FTUS43 KGRB 291748 AAA
TAFGRB
TAF AMD
KGRB 291748Z 2918/3018 21006KT P6SM VCSH SCT035 BKN080
      TEMPO 3003/3006 -SHRA BKN035
     FM300600 VRB03KT P6SM VCSH SCT012 BKN035
     FM301000 VRB03KT 5SM BR VCSH SCT010 BKN035
      TEMPO 3010/3013 3SM BR BKN010
     FM301400 01005KT P6SM SCT012 BKN035=



000
FTUS43 KGRB 291720
TAFGRB
TAF
KGRB 291720Z 2918/3018 21006KT P6SM VCSH BKN025 BKN050
      TEMPO 3003/3006 -SHRA BKN050
     FM300600 VRB03KT P6SM VCSH SCT012 BKN035
     FM301000 VRB03KT 5SM BR VCSH SCT010 BKN035
      TEMPO 3010/3013 3SM BR BKN010
     FM301400 01005KT P6SM SCT012 BKN035=



000
FTUS43 KGRB 291720
TAFGRB
TAF
KGRB 291720Z 2918/3018 21007KT P6SM VCSH BKN035 BKN070
      TEMPO 2918/2922 BKN025
     FM300000 20006KT P6SM SCT050 BKN080
      TEMPO 3003/3006 -SHRA BKN050
     FM300600 VRB03KT P6SM VCSH SCT012 BKN035
     FM301000 VRB03KT 5SM BR VCSH SCT010 BKN035
      TEMPO 3010/3013 3SM BR BKN010
     FM301400 01005KT P6SM SCT012 BKN035=



000
FTUS43 KGRB 291720
TAFGRB
TAF
KGRB 291720Z 2918/3018 21007KT P6SM VCSH BKN035 BKN070
      TEMPO 2918/2922 BKN025
     FM300000 20006KT P6SM SCT050 BKN080
      TEMPO 3003/3006 -SHRA BKN050
     FM300600 VRB03KT P6SM VCSH SCT012 BKN035
     FM301000 VRB03KT 5SM BR VCSH SCT010 BKN035
      TEMPO 3010/3013 3SM BR BKN010
     FM301400 01005KT P6SM SCT012 BKN035=



000
FTUS43 KGRB 291133
TAFGRB
TAF
KGRB 291133Z 2912/3012 VRB03KT P6SM SCT050 BKN090
     FM291800 20006KT P6SM VCSH SCT040 BKN080
      TEMPO 3003/3006 -SHRA BKN040
     FM300600 VRB03KT P6SM VCSH SCT012 BKN035 PROB30 3006/3012 -SHRA
      BKN012=



000
FTUS43 KGRB 291133
TAFGRB
TAF
KGRB 291133Z 2912/3012 VRB03KT P6SM SCT050 BKN090
     FM291800 20006KT P6SM VCSH SCT040 BKN080
      TEMPO 3003/3006 -SHRA BKN040
     FM300600 VRB03KT P6SM VCSH SCT012 BKN035 PROB30 3006/3012 -SHRA
      BKN012=



000
FTUS43 KGRB 291133
TAFGRB
TAF
KGRB 291133Z 2912/3012 VRB03KT P6SM SCT050 BKN090
     FM291800 20006KT P6SM VCSH SCT040 BKN080
      TEMPO 3003/3006 -SHRA BKN040
     FM300600 VRB03KT P6SM VCSH SCT012 BKN035 PROB30 3006/3012 -SHRA
      BKN012=



000
FTUS43 KGRB 291133
TAFGRB
TAF
KGRB 291133Z 2912/3012 VRB03KT P6SM SCT050 BKN090
     FM291800 20006KT P6SM VCSH SCT040 BKN080
      TEMPO 3003/3006 -SHRA BKN040
     FM300600 VRB03KT P6SM VCSH SCT012 BKN035 PROB30 3006/3012 -SHRA
      BKN012=



000
FTUS43 KGRB 290520
TAFGRB
TAF
KGRB 290520Z 2906/3006 VRB03KT P6SM SCT050 BKN090
     FM291800 20006KT P6SM VCSH SCT040 BKN080
      TEMPO 3003/3006 -SHRA BKN040=



000
FTUS43 KGRB 290520
TAFGRB
TAF
KGRB 290520Z 2906/3006 VRB03KT P6SM SCT050 BKN090
     FM291800 20006KT P6SM VCSH SCT040 BKN080
      TEMPO 3003/3006 -SHRA BKN040=



000
FTUS43 KGRB 290520
TAFGRB
TAF
KGRB 290520Z 2906/3006 VRB03KT P6SM SCT050 BKN090
     FM291800 20006KT P6SM VCSH SCT040 BKN080
      TEMPO 3003/3006 -SHRA BKN040=



000
FTUS43 KGRB 290520
TAFGRB
TAF
KGRB 290520Z 2906/3006 VRB03KT P6SM SCT050 BKN090
     FM291800 20006KT P6SM VCSH SCT040 BKN080
      TEMPO 3003/3006 -SHRA BKN040=



000
FTUS43 KGRB 282320
TAFGRB
TAF
KGRB 282320Z 2900/2924 VRB03KT P6SM BKN120
      TEMPO 2908/2912 4SM BR
     FM291800 19006KT P6SM VCSH SCT040 BKN100=



000
FTUS43 KGRB 282320
TAFGRB
TAF
KGRB 282320Z 2900/2924 VRB03KT P6SM BKN120
      TEMPO 2908/2912 4SM BR
     FM291800 19006KT P6SM VCSH SCT040 BKN100=



000
FTUS43 KGRB 282320
TAFGRB
TAF
KGRB 282320Z 2900/2924 VRB03KT P6SM BKN120
      TEMPO 2908/2912 4SM BR
     FM291800 19006KT P6SM VCSH SCT040 BKN100=



000
FTUS43 KGRB 282320
TAFGRB
TAF
KGRB 282320Z 2900/2924 VRB03KT P6SM BKN120
      TEMPO 2908/2912 4SM BR
     FM291800 19006KT P6SM VCSH SCT040 BKN100=



    US Dept of Commerce
    National Oceanic and Atmospheric Administration
    National Weather Service
    1325 East West Highway
    Silver Spring, MD 20910
    Page Author: NWS Internet Services Team
Disclaimer
Information Quality
Credits
Glossary
Privacy Policy
Freedom of Information Act (FOIA)
About Us
Career Opportunities